sensor_id;sensor_type;location;lat;lon;timestamp;pressure;altitude;pressure_sealevel;temperature;humidity
62333;BME280;48624;49.812;8.562;2022-12-24T00:01:42;99955.44;;;10.18;92.49
62333;BME280;48624;49.812;8.562;2022-12-24T00:04:12;99954.31;;;10.09;92.42
62333;BME280;48624;49.812;8.562;2022-12-24T00:06:37;99953.91;;;10.02;93.67
62333;BME280;48624;49.812;8.562;2022-12-24T00:09:03;99960.50;;;10.21;92.74
62333;BME280;48624;49.812;8.562;2022-12-24T00:11:29;99958.16;;;10.05;93.20
62333;BME280;48624;49.812;8.562;2022-12-24T00:13:55;99960.50;;;10.21;91.66
62333;BME280;48624;49.812;8.562;2022-12-24T00:16:20;99978.69;;;10.25;92.14
62333;BME280;48624;49.812;8.562;2022-12-24T00:18:46;99970.88;;;10.48;91.02
62333;BME280;48624;49.812;8.562;2022-12-24T00:21:11;99971.72;;;10.24;91.38
62333;BME280;48624;49.812;8.562;2022-12-24T00:23:36;99979.13;;;10.19;91.28
62333;BME280;48624;49.812;8.562;2022-12-24T00:26:04;99980.22;;;10.17;91.06
62333;BME280;48624;49.812;8.562;2022-12-24T00:28:30;99973.91;;;10.31;91.01
62333;BME280;48624;49.812;8.562;2022-12-24T00:30:55;99983.16;;;10.25;91.28
62333;BME280;48624;49.812;8.562;2022-12-24T00:33:20;99979.13;;;10.19;91.78
62333;BME280;48624;49.812;8.562;2022-12-24T00:35:49;99987.34;;;10.27;92.69
62333;BME280;48624;49.812;8.562;2022-12-24T00:38:14;99995.16;;;10.18;93.08
62333;BME280;48624;49.812;8.562;2022-12-24T00:40:40;99989.56;;;10.09;93.91
62333;BME280;48624;49.812;8.562;2022-12-24T00:43:05;99991.88;;;10.14;94.58
62333;BME280;48624;49.812;8.562;2022-12-24T00:45:30;99993.72;;;10.00;94.45
62333;BME280;48624;49.812;8.562;2022-12-24T00:47:56;99992.38;;;9.95;95.03
62333;BME280;48624;49.812;8.562;2022-12-24T00:50:21;99989.72;;;10.19;93.96
62333;BME280;48624;49.812;8.562;2022-12-24T00:52:46;100000.94;;;10.23;93.86
62333;BME280;48624;49.812;8.562;2022-12-24T00:55:12;99984.94;;;10.00;93.03
62333;BME280;48624;49.812;8.562;2022-12-24T00:57:37;100003.25;;;10.27;92.95
62333;BME280;48624;49.812;8.562;2022-12-24T01:00:03;99991.97;;;10.12;92.56
62333;BME280;48624;49.812;8.562;2022-12-24T01:02:28;100008.59;;;10.14;91.49
62333;BME280;48624;49.812;8.562;2022-12-24T01:04:54;99996.97;;;10.28;91.93
62333;BME280;48624;49.812;8.562;2022-12-24T01:07:35;100017.00;;;10.08;91.08
62333;BME280;48624;49.812;8.562;2022-12-24T01:10:01;100005.16;;;10.01;91.00
62333;BME280;48624;49.812;8.562;2022-12-24T01:12:26;100014.16;;;9.98;90.99
62333;BME280;48624;49.812;8.562;2022-12-24T01:14:52;100017.03;;;9.95;90.93
62333;BME280;48624;49.812;8.562;2022-12-24T01:17:17;100020.53;;;9.96;91.53
62333;BME280;48624;49.812;8.562;2022-12-24T01:19:43;100022.91;;;9.88;90.51
62333;BME280;48624;49.812;8.562;2022-12-24T01:22:08;100030.69;;;9.89;91.07
62333;BME280;48624;49.812;8.562;2022-12-24T01:24:33;100038.97;;;9.84;90.96
62333;BME280;48624;49.812;8.562;2022-12-24T01:26:58;100031.47;;;9.91;91.63
62333;BME280;48624;49.812;8.562;2022-12-24T01:29:24;100038.13;;;9.84;92.45
62333;BME280;48624;49.812;8.562;2022-12-24T01:31:49;100043.41;;;9.97;91.11
62333;BME280;48624;49.812;8.562;2022-12-24T01:34:14;100046.16;;;9.95;90.41
62333;BME280;48624;49.812;8.562;2022-12-24T01:36:40;100048.59;;;10.23;91.21
62333;BME280;48624;49.812;8.562;2022-12-24T01:39:05;100046.53;;;10.02;90.92
62333;BME280;48624;49.812;8.562;2022-12-24T01:41:31;100060.00;;;9.99;92.07
62333;BME280;48624;49.812;8.562;2022-12-24T01:46:41;100070.91;;;9.94;92.39
62333;BME280;48624;49.812;8.562;2022-12-24T01:49:10;100082.72;;;10.14;91.98
62333;BME280;48624;49.812;8.562;2022-12-24T01:51:42;100087.03;;;9.91;92.16
62333;BME280;48624;49.812;8.562;2022-12-24T01:54:13;100081.22;;;9.73;93.53
62333;BME280;48624;49.812;8.562;2022-12-24T01:56:44;100095.78;;;9.92;91.85
62333;BME280;48624;49.812;8.562;2022-12-24T01:59:12;100105.91;;;9.61;92.59
62333;BME280;48624;49.812;8.562;2022-12-24T02:01:39;100089.38;;;9.57;92.64
62333;BME280;48624;49.812;8.562;2022-12-24T02:04:16;100087.69;;;9.43;92.16
62333;BME280;48624;49.812;8.562;2022-12-24T02:06:45;100095.94;;;9.51;92.45
62333;BME280;48624;49.812;8.562;2022-12-24T02:09:11;100103.25;;;9.48;92.80
62333;BME280;48624;49.812;8.562;2022-12-24T02:11:38;100107.16;;;9.42;92.24
62333;BME280;48624;49.812;8.562;2022-12-24T02:14:05;100119.13;;;9.48;92.07
62333;BME280;48624;49.812;8.562;2022-12-24T02:27:27;100120.81;;;9.75;91.54
62333;BME280;48624;49.812;8.562;2022-12-24T02:30:15;100129.78;;;9.72;90.96
62333;BME280;48624;49.812;8.562;2022-12-24T02:32:57;100128.41;;;9.53;92.15
62333;BME280;48624;49.812;8.562;2022-12-24T02:35:34;100120.06;;;9.73;91.48
62333;BME280;48624;49.812;8.562;2022-12-24T02:38:12;100134.56;;;9.41;90.79
62333;BME280;48624;49.812;8.562;2022-12-24T02:40:43;100134.75;;;9.64;91.12
62333;BME280;48624;49.812;8.562;2022-12-24T02:43:14;100131.25;;;9.76;90.40
62333;BME280;48624;49.812;8.562;2022-12-24T02:45:44;100131.81;;;9.68;90.19
62333;BME280;48624;49.812;8.562;2022-12-24T02:48:12;100126.94;;;9.75;91.27
62333;BME280;48624;49.812;8.562;2022-12-24T02:50:39;100129.16;;;9.81;91.87
62333;BME280;48624;49.812;8.562;2022-12-24T02:53:05;100146.41;;;9.87;90.69
62333;BME280;48624;49.812;8.562;2022-12-24T02:55:42;100146.94;;;9.66;91.49
62333;BME280;48624;49.812;8.562;2022-12-24T03:06:45;100150.72;;;9.75;92.48
62333;BME280;48624;49.812;8.562;2022-12-24T03:09:27;100168.41;;;9.62;91.97
62333;BME280;48624;49.812;8.562;2022-12-24T03:12:02;100173.47;;;9.65;92.76
62333;BME280;48624;49.812;8.562;2022-12-24T03:14:28;100178.13;;;9.61;92.72
62333;BME280;48624;49.812;8.562;2022-12-24T03:16:56;100178.03;;;9.63;92.36
62333;BME280;48624;49.812;8.562;2022-12-24T03:19:23;100175.63;;;9.73;92.85
62333;BME280;48624;49.812;8.562;2022-12-24T03:21:50;100185.34;;;9.72;92.32
62333;BME280;48624;49.812;8.562;2022-12-24T03:24:16;100177.81;;;9.66;92.91
62333;BME280;48624;49.812;8.562;2022-12-24T03:26:43;100165.78;;;9.62;92.66
62333;BME280;48624;49.812;8.562;2022-12-24T03:29:10;100168.31;;;9.63;92.45
62333;BME280;48624;49.812;8.562;2022-12-24T03:31:43;100173.47;;;9.65;92.93
62333;BME280;48624;49.812;8.562;2022-12-24T03:34:10;100172.84;;;9.61;93.50
62333;BME280;48624;49.812;8.562;2022-12-24T03:36:36;100181.84;;;9.71;94.05
62333;BME280;48624;49.812;8.562;2022-12-24T03:39:02;100180.88;;;9.85;94.35
62333;BME280;48624;49.812;8.562;2022-12-24T03:41:27;100181.53;;;9.76;94.29
62333;BME280;48624;49.812;8.562;2022-12-24T03:43:53;100186.94;;;9.62;94.21
62333;BME280;48624;49.812;8.562;2022-12-24T03:46:18;100179.41;;;9.55;94.34
62333;BME280;48624;49.812;8.562;2022-12-24T03:48:43;100181.66;;;9.75;94.50
62333;BME280;48624;49.812;8.562;2022-12-24T03:51:17;100177.19;;;9.75;94.07
62333;BME280;48624;49.812;8.562;2022-12-24T03:53:43;100171.59;;;9.80;94.76
62333;BME280;48624;49.812;8.562;2022-12-24T03:56:08;100174.44;;;9.77;93.82
62333;BME280;48624;49.812;8.562;2022-12-24T03:58:34;100187.66;;;9.64;94.50
62333;BME280;48624;49.812;8.562;2022-12-24T04:01:00;100179.19;;;9.71;94.55
62333;BME280;48624;49.812;8.562;2022-12-24T04:03:25;100185.13;;;9.75;94.63
62333;BME280;48624;49.812;8.562;2022-12-24T04:06:05;100185.03;;;9.90;93.30
62333;BME280;48624;49.812;8.562;2022-12-24T04:08:30;100195.38;;;9.67;95.09
62333;BME280;48624;49.812;8.562;2022-12-24T04:10:56;100192.22;;;9.62;96.24
62333;BME280;48624;49.812;8.562;2022-12-24T04:13:22;100187.59;;;9.78;95.67
62333;BME280;48624;49.812;8.562;2022-12-24T04:15:58;100196.34;;;9.66;95.51
62333;BME280;48624;49.812;8.562;2022-12-24T04:18:23;100198.47;;;9.74;95.22
62333;BME280;48624;49.812;8.562;2022-12-24T04:20:49;100196.47;;;9.64;95.81
62333;BME280;48624;49.812;8.562;2022-12-24T04:23:14;100208.41;;;9.70;95.85
62333;BME280;48624;49.812;8.562;2022-12-24T04:25:39;100196.97;;;9.69;96.66
62333;BME280;48624;49.812;8.562;2022-12-24T04:28:05;100218.69;;;9.75;95.80
62333;BME280;48624;49.812;8.562;2022-12-24T04:30:30;100208.94;;;9.88;94.98
62333;BME280;48624;49.812;8.562;2022-12-24T04:32:55;100218.56;;;9.89;95.26
62333;BME280;48624;49.812;8.562;2022-12-24T04:35:20;100226.50;;;9.89;96.10
62333;BME280;48624;49.812;8.562;2022-12-24T04:37:46;100221.44;;;9.99;95.34
62333;BME280;48624;49.812;8.562;2022-12-24T04:40:11;100222.91;;;10.03;94.73
62333;BME280;48624;49.812;8.562;2022-12-24T04:42:36;100221.94;;;10.04;95.40
62333;BME280;48624;49.812;8.562;2022-12-24T04:45:02;100220.81;;;10.08;94.36
62333;BME280;48624;49.812;8.562;2022-12-24T04:47:27;100222.50;;;9.83;95.42
62333;BME280;48624;49.812;8.562;2022-12-24T04:49:52;100218.47;;;9.91;96.00
62333;BME280;48624;49.812;8.562;2022-12-24T04:52:18;100220.47;;;9.74;97.27
62333;BME280;48624;49.812;8.562;2022-12-24T04:54:43;100225.56;;;9.77;96.93
62333;BME280;48624;49.812;8.562;2022-12-24T04:57:08;100228.84;;;9.68;97.54
62333;BME280;48624;49.812;8.562;2022-12-24T04:59:34;100226.19;;;9.81;97.45
62333;BME280;48624;49.812;8.562;2022-12-24T05:01:59;100217.72;;;9.76;97.85
62333;BME280;48624;49.812;8.562;2022-12-24T05:04:24;100210.75;;;9.88;96.60
62333;BME280;48624;49.812;8.562;2022-12-24T05:06:49;100219.19;;;9.67;97.93
62333;BME280;48624;49.812;8.562;2022-12-24T05:09:15;100218.66;;;9.62;99.14
62333;BME280;48624;49.812;8.562;2022-12-24T05:11:40;100228.19;;;9.64;98.67
62333;BME280;48624;49.812;8.562;2022-12-24T05:14:05;100224.31;;;9.83;97.53
62333;BME280;48624;49.812;8.562;2022-12-24T05:16:31;100221.00;;;9.66;98.33
62333;BME280;48624;49.812;8.562;2022-12-24T05:18:56;100222.38;;;9.72;98.27
62333;BME280;48624;49.812;8.562;2022-12-24T05:21:23;100221.97;;;9.65;98.71
62333;BME280;48624;49.812;8.562;2022-12-24T05:23:49;100225.31;;;9.54;99.65
62333;BME280;48624;49.812;8.562;2022-12-24T05:26:40;100231.38;;;9.69;97.79
62333;BME280;48624;49.812;8.562;2022-12-24T05:29:08;100236.97;;;9.65;98.37
62333;BME280;48624;49.812;8.562;2022-12-24T05:31:34;100238.03;;;9.75;97.63
62333;BME280;48624;49.812;8.562;2022-12-24T05:34:00;100243.44;;;9.74;98.40
62333;BME280;48624;49.812;8.562;2022-12-24T05:36:26;100225.09;;;9.57;99.45
62333;BME280;48624;49.812;8.562;2022-12-24T05:38:51;100217.59;;;9.51;100.00
62333;BME280;48624;49.812;8.562;2022-12-24T05:41:17;100229.44;;;9.46;99.71
62333;BME280;48624;49.812;8.562;2022-12-24T05:43:44;100235.69;;;9.44;100.00
62333;BME280;48624;49.812;8.562;2022-12-24T05:46:12;100243.16;;;9.38;100.00
62333;BME280;48624;49.812;8.562;2022-12-24T05:48:38;100246.00;;;9.35;100.00
62333;BME280;48624;49.812;8.562;2022-12-24T05:51:06;100247.53;;;9.52;100.00
62333;BME280;48624;49.812;8.562;2022-12-24T05:53:32;100246.03;;;9.48;100.00
62333;BME280;48624;49.812;8.562;2022-12-24T05:56:03;100252.38;;;9.45;99.55
62333;BME280;48624;49.812;8.562;2022-12-24T05:58:28;100251.13;;;9.51;99.72
62333;BME280;48624;49.812;8.562;2022-12-24T06:00:53;100259.25;;;9.48;100.00
62333;BME280;48624;49.812;8.562;2022-12-24T06:03:19;100265.53;;;9.60;100.00
62333;BME280;48624;49.812;8.562;2022-12-24T06:05:44;100274.03;;;9.37;100.00
62333;BME280;48624;49.812;8.562;2022-12-24T06:08:09;100255.97;;;9.44;100.00
62333;BME280;48624;49.812;8.562;2022-12-24T06:10:35;100277.69;;;9.49;100.00
62333;BME280;48624;49.812;8.562;2022-12-24T06:13:00;100268.34;;;9.43;100.00
62333;BME280;48624;49.812;8.562;2022-12-24T06:15:25;100271.50;;;9.36;100.00
62333;BME280;48624;49.812;8.562;2022-12-24T06:17:50;100277.03;;;9.46;100.00
62333;BME280;48624;49.812;8.562;2022-12-24T06:20:16;100278.22;;;9.54;100.00
62333;BME280;48624;49.812;8.562;2022-12-24T06:22:41;100282.53;;;9.55;100.00
62333;BME280;48624;49.812;8.562;2022-12-24T06:25:07;100277.25;;;9.55;100.00
62333;BME280;48624;49.812;8.562;2022-12-24T06:27:32;100273.13;;;9.51;99.45
62333;BME280;48624;49.812;8.562;2022-12-24T06:29:57;100274.63;;;9.55;99.77
62333;BME280;48624;49.812;8.562;2022-12-24T06:32:23;100280.47;;;9.61;99.21
62333;BME280;48624;49.812;8.562;2022-12-24T06:34:48;100276.66;;;9.65;99.56
62333;BME280;48624;49.812;8.562;2022-12-24T06:37:13;100277.38;;;9.67;99.24
62333;BME280;48624;49.812;8.562;2022-12-24T06:39:44;100274.41;;;9.46;100.00
62333;BME280;48624;49.812;8.562;2022-12-24T06:42:09;100280.84;;;9.54;99.26
62333;BME280;48624;49.812;8.562;2022-12-24T06:44:36;100278.16;;;9.69;98.88
62333;BME280;48624;49.812;8.562;2022-12-24T06:47:01;100283.06;;;9.48;100.00
62333;BME280;48624;49.812;8.562;2022-12-24T06:49:27;100278.06;;;9.43;99.84
62333;BME280;48624;49.812;8.562;2022-12-24T06:51:52;100284.47;;;9.26;100.00
62333;BME280;48624;49.812;8.562;2022-12-24T06:54:18;100278.03;;;9.30;100.00
62333;BME280;48624;49.812;8.562;2022-12-24T06:56:43;100285.31;;;9.26;100.00
62333;BME280;48624;49.812;8.562;2022-12-24T06:59:09;100296.41;;;9.59;99.18
62333;BME280;48624;49.812;8.562;2022-12-24T07:01:34;100305.78;;;9.37;100.00
62333;BME280;48624;49.812;8.562;2022-12-24T07:03:59;100304.53;;;9.43;100.00
62333;BME280;48624;49.812;8.562;2022-12-24T07:06:27;100304.81;;;9.38;99.46
62333;BME280;48624;49.812;8.562;2022-12-24T07:08:53;100311.25;;;9.62;99.59
62333;BME280;48624;49.812;8.562;2022-12-24T07:11:20;100306.88;;;9.48;100.00
62333;BME280;48624;49.812;8.562;2022-12-24T07:13:46;100302.97;;;9.53;100.00
62333;BME280;48624;49.812;8.562;2022-12-24T07:16:12;100307.69;;;9.48;99.95
62333;BME280;48624;49.812;8.562;2022-12-24T07:18:37;100316.75;;;9.58;99.83
62333;BME280;48624;49.812;8.562;2022-12-24T07:21:04;100310.91;;;9.53;99.14
62333;BME280;48624;49.812;8.562;2022-12-24T07:23:29;100312.38;;;9.57;99.08
62333;BME280;48624;49.812;8.562;2022-12-24T07:26:02;100325.00;;;9.67;99.92
62333;BME280;48624;49.812;8.562;2022-12-24T07:28:28;100327.06;;;9.89;98.59
62333;BME280;48624;49.812;8.562;2022-12-24T07:30:57;100328.72;;;9.64;98.79
62333;BME280;48624;49.812;8.562;2022-12-24T07:33:24;100342.78;;;9.65;98.89
62333;BME280;48624;49.812;8.562;2022-12-24T07:36:05;100348.63;;;9.70;98.03
62333;BME280;48624;49.812;8.562;2022-12-24T07:38:32;100342.81;;;9.78;97.51
62333;BME280;48624;49.812;8.562;2022-12-24T07:40:58;100349.16;;;9.75;97.51
62333;BME280;48624;49.812;8.562;2022-12-24T07:43:25;100340.09;;;9.92;97.58
62333;BME280;48624;49.812;8.562;2022-12-24T07:45:54;100343.25;;;9.84;97.09
62333;BME280;48624;49.812;8.562;2022-12-24T07:48:19;100347.72;;;9.84;96.42
62333;BME280;48624;49.812;8.562;2022-12-24T07:50:44;100340.91;;;9.80;96.69
62333;BME280;48624;49.812;8.562;2022-12-24T07:53:10;100345.09;;;9.97;96.12
62333;BME280;48624;49.812;8.562;2022-12-24T07:55:38;100349.78;;;9.79;96.31
62333;BME280;48624;49.812;8.562;2022-12-24T07:58:03;100363.63;;;9.69;97.34
62333;BME280;48624;49.812;8.562;2022-12-24T08:00:38;100355.38;;;10.14;95.79
62333;BME280;48624;49.812;8.562;2022-12-24T08:03:03;100352.22;;;10.22;95.87
62333;BME280;48624;49.812;8.562;2022-12-24T08:05:33;100368.28;;;10.06;96.61
62333;BME280;48624;49.812;8.562;2022-12-24T08:07:58;100367.31;;;9.94;96.93
62333;BME280;48624;49.812;8.562;2022-12-24T08:10:23;100371.31;;;9.87;96.01
62333;BME280;48624;49.812;8.562;2022-12-24T08:12:50;100384.47;;;10.02;96.15
62333;BME280;48624;49.812;8.562;2022-12-24T08:15:15;100388.41;;;10.22;94.36
62333;BME280;48624;49.812;8.562;2022-12-24T08:17:41;100386.31;;;10.14;94.71
62333;BME280;48624;49.812;8.562;2022-12-24T08:20:08;100388.91;;;10.01;96.00
62333;BME280;48624;49.812;8.562;2022-12-24T08:22:35;100385.53;;;9.99;95.51
62333;BME280;48624;49.812;8.562;2022-12-24T08:25:01;100401.75;;;10.07;95.91
62333;BME280;48624;49.812;8.562;2022-12-24T08:27:26;100404.94;;;10.12;95.01
62333;BME280;48624;49.812;8.562;2022-12-24T08:29:52;100399.75;;;10.24;95.34
62333;BME280;48624;49.812;8.562;2022-12-24T08:32:17;100398.34;;;10.46;94.19
62333;BME280;48624;49.812;8.562;2022-12-24T08:34:42;100400.13;;;10.45;94.38
62333;BME280;48624;49.812;8.562;2022-12-24T08:37:08;100395.25;;;10.39;94.13
62333;BME280;48624;49.812;8.562;2022-12-24T08:39:33;100404.56;;;10.32;94.79
62333;BME280;48624;49.812;8.562;2022-12-24T08:41:58;100401.00;;;10.46;94.40
62333;BME280;48624;49.812;8.562;2022-12-24T08:44:24;100400.63;;;10.37;93.72
62333;BME280;48624;49.812;8.562;2022-12-24T08:46:49;100393.34;;;10.41;94.63
62333;BME280;48624;49.812;8.562;2022-12-24T08:49:14;100413.50;;;10.44;94.17
62333;BME280;48624;49.812;8.562;2022-12-24T08:51:40;100411.16;;;10.52;94.28
62333;BME280;48624;49.812;8.562;2022-12-24T08:54:05;100408.72;;;10.49;94.29
62333;BME280;48624;49.812;8.562;2022-12-24T08:56:31;100408.94;;;10.59;93.77
62333;BME280;48624;49.812;8.562;2022-12-24T08:59:00;100399.03;;;10.35;94.51
62333;BME280;48624;49.812;8.562;2022-12-24T09:01:25;100405.25;;;10.48;94.29
62333;BME280;48624;49.812;8.562;2022-12-24T09:03:51;100416.44;;;10.39;95.12
62333;BME280;48624;49.812;8.562;2022-12-24T09:06:16;100415.38;;;10.41;93.90
62333;BME280;48624;49.812;8.562;2022-12-24T09:08:42;100420.38;;;10.46;94.21
62333;BME280;48624;49.812;8.562;2022-12-24T09:11:14;100421.56;;;10.55;94.08
62333;BME280;48624;49.812;8.562;2022-12-24T09:13:40;100423.66;;;10.50;94.42
62333;BME280;48624;49.812;8.562;2022-12-24T09:16:06;100432.59;;;10.21;95.54
62333;BME280;48624;49.812;8.562;2022-12-24T09:18:32;100430.31;;;10.43;94.90
62333;BME280;48624;49.812;8.562;2022-12-24T09:21:00;100437.97;;;10.60;94.80
62333;BME280;48624;49.812;8.562;2022-12-24T09:23:25;100444.44;;;10.56;94.32
62333;BME280;48624;49.812;8.562;2022-12-24T09:25:51;100441.88;;;10.41;94.28
62333;BME280;48624;49.812;8.562;2022-12-24T09:28:16;100436.91;;;10.50;94.66
62333;BME280;48624;49.812;8.562;2022-12-24T09:30:41;100447.91;;;10.57;94.17
62333;BME280;48624;49.812;8.562;2022-12-24T09:33:06;100456.19;;;10.65;93.56
62333;BME280;48624;49.812;8.562;2022-12-24T09:35:32;100465.75;;;10.93;92.96
62333;BME280;48624;49.812;8.562;2022-12-24T09:37:57;100455.91;;;10.82;93.64
62333;BME280;48624;49.812;8.562;2022-12-24T09:40:35;100460.47;;;10.93;93.86
62333;BME280;48624;49.812;8.562;2022-12-24T09:43:05;100465.13;;;11.16;92.58
62333;BME280;48624;49.812;8.562;2022-12-24T09:45:37;100470.50;;;11.40;92.80
62333;BME280;48624;49.812;8.562;2022-12-24T09:48:10;100470.28;;;11.30;91.85
62333;BME280;48624;49.812;8.562;2022-12-24T09:56:14;100487.88;;;11.44;91.26
62333;BME280;48624;49.812;8.562;2022-12-24T09:58:49;100481.34;;;11.61;90.88
62333;BME280;48624;49.812;8.562;2022-12-24T10:01:18;100496.75;;;11.56;90.68
62333;BME280;48624;49.812;8.562;2022-12-24T10:03:44;100501.50;;;11.64;90.33
62333;BME280;48624;49.812;8.562;2022-12-24T10:06:17;100513.94;;;11.63;89.74
62333;BME280;48624;49.812;8.562;2022-12-24T10:09:11;100523.31;;;11.43;90.54
62333;BME280;48624;49.812;8.562;2022-12-24T10:14:53;100528.38;;;11.59;89.87
62333;BME280;48624;49.812;8.562;2022-12-24T10:26:07;100521.72;;;11.91;88.87
62333;BME280;48624;49.812;8.562;2022-12-24T10:28:49;100509.97;;;12.19;87.45
62333;BME280;48624;49.812;8.562;2022-12-24T10:31:18;100505.97;;;12.01;87.80
62333;BME280;48624;49.812;8.562;2022-12-24T10:33:52;100504.25;;;11.75;88.12
62333;BME280;48624;49.812;8.562;2022-12-24T10:36:26;100498.72;;;11.78;87.79
62333;BME280;48624;49.812;8.562;2022-12-24T10:38:52;100506.19;;;11.98;87.46
62333;BME280;48624;49.812;8.562;2022-12-24T10:41:17;100504.81;;;11.92;88.32
62333;BME280;48624;49.812;8.562;2022-12-24T10:43:44;100499.31;;;11.95;86.64
62333;BME280;48624;49.812;8.562;2022-12-24T10:46:21;100508.88;;;11.85;85.51
62333;BME280;48624;49.812;8.562;2022-12-24T10:48:54;100509.94;;;11.95;86.63
62333;BME280;48624;49.812;8.562;2022-12-24T10:51:36;100515.94;;;11.73;87.96
62333;BME280;48624;49.812;8.562;2022-12-24T10:54:13;100517.44;;;12.01;87.29
62333;BME280;48624;49.812;8.562;2022-12-24T10:56:41;100516.56;;;11.76;88.09
62333;BME280;48624;49.812;8.562;2022-12-24T10:59:22;100518.50;;;11.99;87.10
62333;BME280;48624;49.812;8.562;2022-12-24T11:01:50;100519.50;;;11.85;88.80
62333;BME280;48624;49.812;8.562;2022-12-24T11:04:21;100523.06;;;11.97;87.43
62333;BME280;48624;49.812;8.562;2022-12-24T11:07:05;100519.22;;;12.14;86.32
62333;BME280;48624;49.812;8.562;2022-12-24T11:09:34;100521.03;;;11.76;86.98
62333;BME280;48624;49.812;8.562;2022-12-24T11:12:03;100521.22;;;11.86;87.17
62333;BME280;48624;49.812;8.562;2022-12-24T11:14:35;100524.13;;;12.07;86.15
62333;BME280;48624;49.812;8.562;2022-12-24T11:17:03;100523.66;;;11.89;87.53
62333;BME280;48624;49.812;8.562;2022-12-24T11:19:38;100523.50;;;12.03;86.37
62333;BME280;48624;49.812;8.562;2022-12-24T11:22:07;100525.72;;;12.10;86.09
62333;BME280;48624;49.812;8.562;2022-12-24T11:24:36;100521.63;;;11.92;87.14
62333;BME280;48624;49.812;8.562;2022-12-24T11:27:28;100517.44;;;12.01;87.50
62333;BME280;48624;49.812;8.562;2022-12-24T11:30:29;100516.00;;;12.21;86.10
62333;BME280;48624;49.812;8.562;2022-12-24T11:35:29;100511.59;;;12.09;86.55
62333;BME280;48624;49.812;8.562;2022-12-24T11:40:24;100504.16;;;12.01;86.94
62333;BME280;48624;49.812;8.562;2022-12-24T11:42:50;100503.38;;;11.88;88.13
62333;BME280;48624;49.812;8.562;2022-12-24T11:45:31;100506.41;;;11.94;88.78
62333;BME280;48624;49.812;8.562;2022-12-24T11:47:58;100505.81;;;11.78;89.12
62333;BME280;48624;49.812;8.562;2022-12-24T11:50:28;100510.31;;;11.77;88.32
62333;BME280;48624;49.812;8.562;2022-12-24T11:53:03;100501.03;;;11.83;87.48
62333;BME280;48624;49.812;8.562;2022-12-24T11:58:45;100500.03;;;11.73;89.16
62333;BME280;48624;49.812;8.562;2022-12-24T12:01:23;100508.19;;;12.07;87.55
62333;BME280;48624;49.812;8.562;2022-12-24T12:03:50;100502.78;;;12.09;88.12
62333;BME280;48624;49.812;8.562;2022-12-24T12:06:37;100508.78;;;11.86;88.08
62333;BME280;48624;49.812;8.562;2022-12-24T12:09:13;100508.00;;;11.97;88.08
62333;BME280;48624;49.812;8.562;2022-12-24T12:11:43;100505.38;;;12.21;86.47
62333;BME280;48624;49.812;8.562;2022-12-24T12:14:19;100516.34;;;12.17;86.10
62333;BME280;48624;49.812;8.562;2022-12-24T12:19:30;100512.03;;;11.65;89.53
62333;BME280;48624;49.812;8.562;2022-12-24T12:21:58;100512.75;;;11.68;90.41
62333;BME280;48624;49.812;8.562;2022-12-24T12:24:35;100512.19;;;11.75;89.93
62333;BME280;48624;49.812;8.562;2022-12-24T12:27:10;100506.16;;;11.73;90.41
62333;BME280;48624;49.812;8.562;2022-12-24T12:29:48;100511.00;;;11.55;91.77
62333;BME280;48624;49.812;8.562;2022-12-24T12:32:37;100505.38;;;11.47;93.35
62333;BME280;48624;49.812;8.562;2022-12-24T12:35:22;100509.00;;;11.20;93.93
62333;BME280;48624;49.812;8.562;2022-12-24T12:38:08;100515.50;;;11.16;93.10
62333;BME280;48624;49.812;8.562;2022-12-24T12:51:17;100522.88;;;11.49;93.72
62333;BME280;48624;49.812;8.562;2022-12-24T12:56:48;100534.88;;;11.55;93.80
62333;BME280;48624;49.812;8.562;2022-12-24T13:02:18;100539.00;;;11.46;93.04
62333;BME280;48624;49.812;8.562;2022-12-24T13:05:05;100537.22;;;11.47;93.93
62333;BME280;48624;49.812;8.562;2022-12-24T13:07:46;100537.72;;;11.52;94.08
62333;BME280;48624;49.812;8.562;2022-12-24T13:16:52;100539.25;;;11.30;93.93
62333;BME280;48624;49.812;8.562;2022-12-24T13:20:02;100550.16;;;11.51;93.76
62333;BME280;48624;49.812;8.562;2022-12-24T13:22:33;100545.81;;;11.50;93.88
62333;BME280;48624;49.812;8.562;2022-12-24T13:24:59;100547.09;;;11.58;94.01
62333;BME280;48624;49.812;8.562;2022-12-24T13:27:33;100548.25;;;11.41;93.56
62333;BME280;48624;49.812;8.562;2022-12-24T13:33:01;100540.19;;;11.42;94.28
62333;BME280;48624;49.812;8.562;2022-12-24T13:35:30;100542.84;;;11.42;94.05
62333;BME280;48624;49.812;8.562;2022-12-24T13:40:54;100536.91;;;11.38;94.77
62333;BME280;48624;49.812;8.562;2022-12-24T13:43:20;100533.72;;;11.33;94.99
62333;BME280;48624;49.812;8.562;2022-12-24T13:45:48;100540.84;;;11.33;95.01
62333;BME280;48624;49.812;8.562;2022-12-24T13:48:32;100547.81;;;11.47;94.83
62333;BME280;48624;49.812;8.562;2022-12-24T13:51:17;100544.44;;;11.32;95.35
62333;BME280;48624;49.812;8.562;2022-12-24T13:53:46;100556.34;;;11.26;95.69
62333;BME280;48624;49.812;8.562;2022-12-24T13:58:44;100556.53;;;11.49;95.71
62333;BME280;48624;49.812;8.562;2022-12-24T14:01:12;100559.41;;;11.33;95.42
62333;BME280;48624;49.812;8.562;2022-12-24T14:03:46;100545.09;;;11.35;95.53
62333;BME280;48624;49.812;8.562;2022-12-24T14:08:45;100547.09;;;11.58;94.73
62333;BME280;48624;49.812;8.562;2022-12-24T14:11:24;100561.94;;;11.47;94.93
62333;BME280;48624;49.812;8.562;2022-12-24T14:16:28;100552.28;;;11.33;94.57
62333;BME280;48624;49.812;8.562;2022-12-24T14:19:00;100562.78;;;11.61;93.75
62333;BME280;48624;49.812;8.562;2022-12-24T14:21:36;100560.66;;;11.53;93.32
62333;BME280;48624;49.812;8.562;2022-12-24T14:24:12;100556.94;;;11.56;93.60
62333;BME280;48624;49.812;8.562;2022-12-24T14:27:30;100564.78;;;11.18;92.64
62333;BME280;48624;49.812;8.562;2022-12-24T14:30:29;100566.19;;;11.11;93.99
62333;BME280;48624;49.812;8.562;2022-12-24T14:32:55;100556.09;;;11.29;93.88